< < Back
Terminal Aerodrome Forecast


Current Version              Previous Versions:   1  2  3  4  5  6  7  8  9  

Terminal Aerodrome Forecast

623
FTUS42 KFFC 301700 RRA
TAFFTY
TAF
KFTY 301741Z 3018/3118 17007KT P6SM VCSH SCT035 OVC060
      TEMPO 3020/3024 6SM -TSRA BR BKN025CB
     FM310300 00000KT P6SM FEW035 BKN100
     FM311000 00000KT 4SM BR SCT100
     FM311400 23005KT P6SM SCT025=

Latest METAR

398
SAUS70 KWBC 302200
MTRFTY
METAR KFTY 302153Z 02003KT 10SM FEW090 SCT120 27/22 A3008 RMK AO2 WSHFT
2053 LTG DSNT NE AND W TSE26 SLP179 T02720222


USA.gov is the U.S. government's official web portal to all federal, state and local government web resources and services.